x

8419317 - Wells, Me (welm1) Weather Station

10:54 - Fri 24th Mar 2017 All times are EDT. -4 hours from GMT.

  • Wind
    10mph, 17mph gusts
  • Sea Temp 38°f
  • Air Temp 33°f
  • Sea Pressure 1030mb
  • 8419317 - Wells, Me
  • 8419317 - Wells, Me

More Historic Weather Station data

Upgrade to MSW Pro to gain access to the past 30 days of data for over 8000 Wavebouys and Weather Stations around the globe.

Join Pro

Comparision Forecast

View Surf forecast
   
ven. 03/24 10:54 10 17 mph 1030mb 38f 33f
10:48 9 17 mph 1030mb 38f 33f
10:42 11 22 mph 1029.9mb 38f 33f
10:36 16 25 mph 1030mb 38f 33f
10:30 18 31 mph 1030.4mb 38f 34f
10:24 17 22 mph 1030.3mb 38f 34f
10:18 16 21 mph 1030.5mb 38f 34f
10:12 15 18 mph 1030.3mb 38f 34f
10:06 16 20 mph 1030.2mb 38f 34f
10:00 14 18 mph 1030.3mb 38f 35f
9:54 14 17 mph 1030.4mb 38f 35f
9:48 14 16 mph 1030.7mb 38f 35f
9:42 13 16 mph 1030.8mb 38f 35f
9:36 13 16 mph 1030.8mb 38f 35f
9:30 13 17 mph 1030.8mb 38f 35f
9:24 14 21 mph 1030.9mb 38f 35f
9:18 11 15 mph 1030.9mb 38f 35f
9:12 10 15 mph 1031mb 38f 35f
9:06 13 17 mph 1031.1mb 38f 35f
9:00 11 15 mph 1031.3mb 38f 35f
8:54 13 15 mph 1031.2mb 38f 35f
8:48 13 15 mph 1031.4mb 38f 35f
8:42 14 18 mph 1031.4mb 38f 35f
8:36 16 20 mph 1031.3mb 38f 35f
8:30 15 17 mph 1031.2mb 38f 35f
8:24 16 20 mph 1031.3mb 38f 35f
8:18 16 21 mph 1031.4mb 38f 35f
8:12 15 20 mph 1031.4mb 38f 35f
8:06 15 17 mph 1031.4mb 38f 34f
8:00 16 18 mph 1031.3mb 38f 34f
7:54 15 17 mph 1031.4mb 38f 34f
7:48 14 16 mph 1031.4mb 38f 34f
7:42 7 14 mph 1031.4mb 38f 32f
7:36 2 5 mph 1031.3mb 38f 28f
7:30 3 5 mph 1031.5mb 38f 28f
7:24 3 5 mph 1031.7mb 38f 27f
7:18 2
mph
1031.8mb 38f 27f
7:12 1
mph
1031.8mb 38f 27f
7:06  -  1 mph 1032.1mb 38f 26f
7:00  -  2 mph 1032.3mb 38f 26f
6:54 2
mph
1032.4mb 38f 25f
6:48 1
mph
1032.4mb 38f 25f
6:42 2
mph
1032.4mb 38f 25f
6:36  -  1 mph 1032.3mb 38f 25f
6:30  -  1 mph 1032.2mb 38f 25f
6:24 1 2 mph 1032.4mb 38f 24f
6:18 1 2 mph 1032.5mb 38f 24f
6:12 2 3 mph 1032.5mb 38f 24f
6:06 2
mph
1032.4mb 38f 25f
6:00 1 3 mph 1032.4mb 38f 25f
5:54 2 3 mph 1032.5mb 38f 25f
5:48 3
mph
1032.6mb 37f 25f
5:42 2 3 mph 1032.5mb 37f 26f
5:36 2
mph
1032.4mb 37f 25f
5:30 2 3 mph 1032.3mb 37f 26f
5:24 2 5 mph 1032.1mb 37f 26f
5:18 3 5 mph 1032.1mb 37f 26f
5:12 3
mph
1032.1mb 37f 26f
5:06 2 5 mph 1032.1mb 37f 26f
5:00 2 5 mph 1032.3mb 37f 26f
4:54 3
mph
1032.3mb 37f 26f
4:48 2 5 mph 1032.5mb 37f 26f
4:42 3 6 mph 1032.7mb 37f 26f
4:36 5 6 mph 1032.6mb 36f 26f
4:30 3 5 mph 1032.4mb 36f 26f
4:24 3 5 mph 1032.6mb 36f 26f
4:18 3 5 mph 1032.6mb 36f 27f
4:12 3 5 mph 1032.6mb 36f 27f
4:06 3 5 mph 1032.8mb 36f 27f
4:00 3 6 mph 1032.7mb 36f 27f
3:54 3 5 mph 1032.8mb 36f 27f
3:48 5 6 mph 1032.7mb 37f 27f
3:42 5 6 mph 1032.8mb 37f 26f
3:36 1 3 mph 1032.9mb 37f 26f
3:30 1 3 mph 1032.7mb 37f 25f
3:24 2 3 mph 1032.6mb 37f 25f
3:18 1 2 mph 1032.6mb 37f 25f
3:12  -  2 mph 1032.6mb 37f 25f
3:06 1 3 mph 1032.5mb 37f 25f
3:00 2 3 mph 1032.5mb 37f 25f
2:54 2
mph
1032.4mb 37f 24f
2:48 1 3 mph 1032.6mb 37f 24f
2:42 2 3 mph 1032.6mb 37f 24f
2:36  -  1 mph 1032.6mb 37f 25f
2:30  -  1 mph 1032.7mb 37f 25f
2:24 1 2 mph 1032.8mb 37f 25f
2:18 1 3 mph 1032.9mb 37f 25f
2:12 2 3 mph 1033.1mb 37f 24f
2:06 2 3 mph 1033.2mb 37f 25f
2:00  -  3 mph 1033.3mb 37f 25f
1:54 3 5 mph 1033.7mb 37f 26f
1:48 5 6 mph 1033.8mb 37f -
1:42 6
mph
1033.9mb 37f -
1:36 2 3 mph 1033.7mb 37f -
1:30 2
mph
1033.6mb 37f 24f
1:24 2
mph
1033.6mb 37f 23f
1:18 2
mph
1033.7mb 37f 23f
1:12 1 2 mph 1033.8mb 37f 24f
1:06 1 2 mph 1033.9mb 38f 26f
1:00 1
mph
1033.9mb 38f 24f
12:54 1
mph
1034mb 38f 24f
12:48 1 2 mph 1033.8mb 38f 24f
12:42 1 2 mph 1033.8mb 38f 26f
12:36  -  1 mph 1033.7mb 38f 26f
12:30  -  1 mph 1033.7mb 38f 25f
12:24  -  2 mph 1033.7mb 38f 25f
12:18 1 2 mph 1033.5mb 38f 26f
12:12 2
mph
1033.6mb 38f 25f
12:06 2 3 mph 1033.6mb 38f 26f
12:00 2 3 mph 1033.5mb 38f 26f
jeu. 03/23 11:54 2
mph
1033.4mb 38f 26f
11:48 2
mph
1033.2mb 38f 28f
11:42  -  1 mph 1033.2mb 38f 28f
11:36 1
mph
1033.1mb 38f 28f
11:30  -  3 mph 1033.1mb 38f 27f
11:24 3 6 mph 1033mb 38f 28f
11:18 3 5 mph 1033.1mb 38f 28f
11:12 2 3 mph 1033.1mb 38f 28f
11:06 3
mph
1033.1mb 38f 28f
11:00 5 6 mph 1033.1mb 38f 28f
10:54 3 5 mph 1033.1mb 38f 29f
10:48 3
mph
1033.1mb 38f 29f
10:42 3 6 mph 1033.1mb 38f 29f
10:36 3 6 mph 1033.1mb 38f 29f
10:30 3 5 mph 1033.1mb 38f 29f
10:24 3 6 mph 1033mb 38f 29f
10:18 3 8 mph 1033mb 38f 29f
10:12 6 8 mph 1032.9mb 38f 30f
10:06 6 8 mph 1032.9mb 38f 30f
10:00 6 8 mph 1032.9mb 38f 30f
9:54 6 8 mph 1032.9mb 38f 30f
9:48 6 8 mph 1032.8mb 38f 30f
9:42 6 10 mph 1032.6mb 38f 30f
9:36 8 10 mph 1032.3mb 38f 30f
9:30 7 9 mph 1032.2mb 38f 29f
9:24 6 8 mph 1032.3mb 38f 29f
9:18 6
mph
1032.5mb 38f 30f
9:12 5 6 mph 1032.6mb 38f 30f
9:06 5 7 mph 1032.7mb 38f 30f
9:00 5 7 mph 1032.5mb 38f 30f
8:54 5 7 mph 1032.3mb 38f 29f
8:48 6 7 mph 1032.2mb 38f 31f
8:42 2 5 mph 1032.2mb 38f 31f
8:36  -  2 mph 1032.3mb 38f 31f
8:30 2 6 mph 1032.3mb 38f 31f
8:24 3 6 mph 1032.1mb 38f 31f
8:18 5 7 mph 1032mb 38f 31f
8:12 6 8 mph 1031.7mb 38f 31f
8:06 6 7 mph 1031.4mb 38f 31f
8:00 6 9 mph 1031.2mb 38f 31f
7:54 6 9 mph 1031mb 38f 32f
7:48 6 10 mph 1030.9mb 38f 32f
7:42 7 10 mph 1030.8mb 38f 32f
7:36 5 7 mph 1030.8mb 38f 32f
7:30 5 8 mph 1030.6mb 38f 32f
7:24 7 10 mph 1030.5mb 38f 32f
7:18 9 14 mph 1030.3mb 38f 33f
7:12 8 14 mph 1030.2mb 38f 33f
7:06 10 16 mph 1030.2mb 38f 33f
7:00 9 15 mph 1030.1mb 38f 33f
6:54 9 15 mph 1030.1mb 38f 33f
6:48 9 18 mph 1030.1mb 38f 34f
6:42 10 16 mph 1030mb 38f 34f
6:36 9 17 mph 1030mb 38f 34f
6:30 8 16 mph 1029.8mb 38f 34f
6:24 11 20 mph 1029.7mb 38f 34f
6:18 9 24 mph 1029.5mb 38f 35f
6:12 16 24 mph 1029.2mb 38f 34f
6:06 16 28 mph 1029mb 38f 34f
6:00 11 21 mph 1029mb 38f 34f
5:54 13 22 mph 1029.1mb 38f 35f
5:48 13 22 mph 1029mb 38f 35f
5:42 11 21 mph 1028.9mb 38f 35f
5:36 18 24 mph 1028.8mb 38f 35f
5:30 14 23 mph 1028.8mb 38f 35f
5:24 11 21 mph 1028.8mb 37f 35f
5:18 14 24 mph 1028.7mb 37f 35f
5:12 15 25 mph 1028.7mb 37f 35f
5:06 14 23 mph 1028.5mb 37f 35f
5:00 16 24 mph 1028.4mb 37f 35f
4:54 16 23 mph 1028.3mb 37f 35f
4:48 14 22 mph 1028.3mb 37f 35f
4:42 16 22 mph 1028.2mb 37f 35f
4:36 15 22 mph 1028.2mb 37f 35f
4:30 14 29 mph 1028.1mb 37f 35f
4:24 11 18 mph 1028.2mb 37f 35f
4:18 13 23 mph 1028.3mb 37f 35f
4:12 9 23 mph 1028.3mb 37f 35f
4:06 15 24 mph 1028.3mb 37f 34f
4:00 7 26 mph 1028.4mb 37f 35f
3:54 8 22 mph 1028.4mb 36f 35f
3:48 15 23 mph 1028.3mb 36f 34f
3:42 15 23 mph 1028.4mb 36f 34f
3:36 14 18 mph 1028.3mb 36f 34f
3:30 14 22 mph 1028.4mb 36f 33f
3:24 15 23 mph 1028.3mb 36f 33f
3:18 17 22 mph 1028.2mb 36f 33f
3:12 15 22 mph 1028.3mb 36f 33f
3:06 14 22 mph 1028.4mb 36f 33f
3:00 18 24 mph 1028.4mb 36f 32f
2:54 14 23 mph 1028.4mb 36f 33f
2:48 10 24 mph 1028.3mb 36f 33f
2:42 15 21 mph 1028.3mb 36f 32f
2:36 11 22 mph 1028.3mb 36f 32f
2:30 11 15 mph 1028.3mb 36f 32f
2:24 13 22 mph 1028.3mb 36f 32f
2:18 11 17 mph 1028.3mb 36f 32f
2:12 11 21 mph 1028.4mb 36f 32f
2:06 9 15 mph 1028.4mb 36f 32f
2:00 17 22 mph 1028.4mb 36f 31f
1:54 7 17 mph 1028.5mb 36f 32f
1:48 8 17 mph 1028.5mb 36f 32f
1:42 13 20 mph 1028.5mb 36f 32f
1:36 11 21 mph 1028.7mb 37f 31f
1:30 10 20 mph 1028.6mb 37f 31f
1:24 11 17 mph 1028.7mb 37f 31f
1:18 9 16 mph 1028.8mb 37f 31f
1:12 8 16 mph 1028.8mb 37f 30f
1:06 11 18 mph 1028.9mb 37f 30f
1:00 8 16 mph 1028.9mb 37f 30f
12:54 11 17 mph 1029mb 37f 30f
12:48 14 22 mph 1028.9mb 37f 29f
12:42 10 15 mph 1029mb 37f 30f
12:36 13 17 mph 1029.1mb 37f 29f
12:30 11 18 mph 1029.1mb 37f 29f
12:24 13 20 mph 1029.2mb 37f 28f
12:18 14 21 mph 1029.3mb 37f 28f
12:12 14 21 mph 1029.4mb 37f 28f
12:06 15 20 mph 1029.4mb 37f 28f
12:00 8 15 mph 1029.6mb 37f 28f
11:54 7 20 mph 1029.7mb 37f 27f
11:48 10 17 mph 1029.8mb 37f 26f
11:42 11 20 mph 1029.9mb 37f 26f
11:36 5 17 mph 1030mb 37f 26f
11:30 15 18 mph 1030mb 37f 26f
11:24 13 20 mph 1030mb 37f 26f
11:18 8 14 mph 1030.1mb 37f 25f
11:12 10 16 mph 1030.2mb 37f 24f
11:06 11 18 mph 1030.1mb 37f 24f
11:00 7 18 mph 1030.2mb 37f 24f
10:54 10 17 mph 1030.2mb 37f 24f
10:48 7 14 mph 1030.2mb 37f 24f
10:42 10 16 mph 1030.3mb 37f 23f
10:36 9 17 mph 1030.4mb 37f 23f
10:30 6 16 mph 1030.4mb 37f 24f
10:24 11 18 mph 1030.4mb 37f 22f
10:18 11 17 mph 1030.4mb 37f 23f
10:12 8 14 mph 1030.4mb 37f 23f
10:06 10 20 mph 1030.3mb 37f 23f
10:00 10 15 mph 1030.4mb 37f 22f
9:54 8 15 mph 1030.3mb 37f 22f
9:48 13 16 mph 1030.3mb 37f 21f
9:42 9 17 mph 1030.3mb 37f 22f
9:36 10 15 mph 1030.3mb 37f 22f
9:30 5 14 mph 1030.4mb 37f 22f
9:24 11 18 mph 1030.3mb 37f 21f
9:18 7 15 mph 1030.4mb 37f 21f
9:12 9 16 mph 1030.3mb 37f 20f
9:06 11 15 mph 1030.3mb 37f 20f
9:00 9 14 mph 1030.3mb 37f 20f
8:54 8 14 mph 1030.3mb 37f 20f
8:48 8 11 mph 1030.2mb 37f 20f
8:42 8 13 mph 1030.2mb 37f 20f
8:36 7 11 mph 1030.2mb 37f 20f
8:30 6 11 mph 1030.2mb 37f 19f
8:24 6 10 mph 1030.3mb 37f 19f
8:18 7 9 mph 1030.2mb 37f 19f
8:12 5 7 mph 1030.2mb 37f 19f
8:06 5 8 mph 1030.2mb 37f 19f
8:00 5 7 mph 1030.2mb 37f 18f
7:54 5 6 mph 1030.1mb 37f 18f
7:48 5 6 mph 1030mb 37f 18f
7:42 3 6 mph 1030mb 37f 18f
7:36 2 3 mph 1030mb 37f 18f
7:30 2 5 mph 1030mb 37f 18f
7:24 2 3 mph 1029.9mb 37f 18f
7:18 2 3 mph 1029.8mb 37f 17f
7:12 3 5 mph 1029.7mb 37f 17f
7:06 2 3 mph 1029.7mb 37f 17f
7:00 3 5 mph 1029.6mb 37f 17f
6:54 3 6 mph 1029.6mb 37f 16f
6:48 5 8 mph 1029.5mb 37f 16f
6:42 3 6 mph 1029.3mb 37f 16f
6:36 6 7 mph 1029.2mb 37f 16f
6:30 5 10 mph 1029.1mb 37f 16f
6:24 8 10 mph 1029.1mb 37f 16f
6:18 6 8 mph 1029mb 37f 17f
6:12 5 7 mph 1028.9mb 37f 17f
6:06 2 5 mph 1028.8mb 37f 17f
6:00 5 7 mph 1028.7mb 37f 17f
5:54 6 9 mph 1028.5mb 37f 16f
5:48 7 9 mph 1028.4mb 37f 16f
5:42 8 13 mph 1028.3mb 37f 17f
5:36 6 8 mph 1028.2mb 37f 16f
5:30 7 10 mph 1028.1mb 37f 17f
5:24 9 11 mph 1027.9mb 37f 17f
5:18 11 15 mph 1027.9mb 37f 17f
5:12 9 14 mph 1027.8mb 37f 17f
5:06 9 11 mph 1027.8mb 36f 17f
5:00 7 10 mph 1027.7mb 36f 17f
4:54 7 10 mph 1027.7mb 36f 17f
4:48 7 11 mph 1027.5mb 36f 17f
4:42 7 13 mph 1027.4mb 36f 17f
4:36 9 14 mph 1027.3mb 36f 17f
4:30 9 11 mph 1027.1mb 36f 17f
4:24 8 13 mph 1027.1mb 36f 17f
4:18 8 11 mph 1027mb 36f 17f
4:12 10 18 mph 1026.9mb 35f 17f
4:06 13 18 mph 1026.8mb 35f 17f
4:00 10 16 mph 1026.8mb 35f 17f
3:54 11 16 mph 1026.8mb 35f 17f
3:48 15 18 mph 1026.6mb 35f 18f
3:42 10 20 mph 1026.7mb 35f 17f
3:36 16 21 mph 1026.6mb 35f 18f
3:30 15 20 mph 1026.6mb 35f 18f
3:24 11 20 mph 1026.6mb 35f 17f
3:18 13 21 mph 1026.5mb 35f 17f
3:12 16 22 mph 1026.4mb 36f 18f
3:06 13 22 mph 1026.4mb 36f 17f
3:00 15 18 mph 1026.3mb 36f 18f
2:54 14 21 mph 1026.3mb 36f 18f
2:48 14 20 mph 1026.3mb 36f -
2:42 11 20 mph 1026.3mb 36f -
2:36 15 18 mph 1026.2mb 36f -
2:30 14 18 mph 1026.4mb 36f 18f
2:24 9 14 mph 1026.4mb 37f 17f
2:18 11 16 mph 1026.3mb 37f 17f
2:12 13 21 mph 1026.3mb 37f 18f
2:06 13 15 mph 1026.2mb 37f 17f
2:00 10 14 mph 1026.3mb 37f 17f
1:54 13 17 mph 1026.2mb 37f 17f
1:48 11 22 mph 1026.2mb 37f -
1:42 7 14 mph 1026.2mb 37f -
1:36 7 13 mph 1026.2mb 37f -
1:30 8 11 mph 1026.2mb 37f 17f
1:24 10 15 mph 1026.1mb 37f 17f
1:18 9 15 mph 1026mb 37f 17f
1:12 9 15 mph 1025.9mb 37f 17f
1:06 10 14 mph 1025.9mb 37f 17f
1:00 10 15 mph 1025.8mb 37f 17f
12:54 10 22 mph 1025.8mb 37f 17f
12:48 15 24 mph 1025.6mb 37f 18f
12:42 11 22 mph 1025.6mb 37f 17f
12:36 9 15 mph 1025.6mb 37f 17f
12:30 8 11 mph 1025.5mb 37f 17f
12:24 10 14 mph 1025.5mb 37f 17f
12:18 11 16 mph 1025.5mb 37f 17f
12:12 10 16 mph 1025.4mb 37f 17f
12:06 10 16 mph 1025.3mb 37f 16f
12:00 10 16 mph 1025.1mb 37f 16f
mer. 03/22 11:54 7 15 mph 1025.1mb 38f 16f
11:48 8 13 mph 1025.1mb 38f 16f
11:42 8 14 mph 1025mb 38f 16f
11:36 10 16 mph 1024.9mb 38f 16f
11:30 10 17 mph 1024.8mb 38f 16f
11:24 11 17 mph 1024.7mb 38f 16f
11:18 10 15 mph 1024.7mb 38f 16f
11:12 8 14 mph 1024.8mb 38f 16f
11:06 8 14 mph 1024.8mb 38f 16f
11:00 9 14 mph 1024.7mb 38f 16f
10:54 8 14 mph 1024.5mb 38f 16f
10:48 8 10 mph 1024.5mb 38f 16f
10:42 7 13 mph 1024.4mb 38f 16f
10:36 9 15 mph 1024.2mb 38f 16f
10:30 9 15 mph 1024.1mb 38f 16f
10:24 13 16 mph 1023.8mb 38f 17f
10:18 10 17 mph 1023.7mb 38f 17f
10:12 14 22 mph 1023.5mb 38f 17f
10:06 10 17 mph 1023.5mb 38f 17f
10:00 10 16 mph 1023.5mb 38f 17f
9:54 9 15 mph 1023.5mb 38f 17f
9:48 14 18 mph 1023.3mb 38f 17f
9:42 14 18 mph 1023.2mb 38f 17f
9:36 10 18 mph 1023.2mb 38f 17f
9:30 13 16 mph 1023.1mb 38f 17f
9:24 11 17 mph 1023.1mb 38f 17f
9:18 11 17 mph 1023mb 38f 17f
9:12 13 18 mph 1022.9mb 38f 17f
9:06 13 22 mph 1022.7mb 38f 17f
9:00 14 22 mph 1022.6mb 38f 17f
8:54 14 20 mph 1022.5mb 38f 17f
8:48 11 17 mph 1022.4mb 38f 17f
8:42 14 18 mph 1022.4mb 38f 17f
8:36 14 18 mph 1022.2mb 38f 17f
8:30 11 22 mph 1022mb 38f 17f
8:24 11 18 mph 1021.9mb 38f 18f
8:18 14 23 mph 1021.6mb 38f 17f
8:12 20 24 mph 1021.5mb 38f 18f
8:06 17 26 mph 1021.3mb 38f 18f
8:00 16 24 mph 1021mb 38f 18f
7:54 16 20 mph 1020.9mb 38f 18f
7:48 13 23 mph 1020.9mb 38f 18f
7:42 15 20 mph 1020.7mb 38f 18f
7:36 15 26 mph 1020.6mb 38f 18f
7:30 15 22 mph 1020.4mb 38f 18f
7:24 16 21 mph 1020.3mb 38f 18f
7:18 14 21 mph 1020.2mb 38f 18f
7:12 17 26 mph 1020mb 38f 19f
7:06 23 31 mph 1019.7mb 38f 19f
7:00 20 25 mph 1019.6mb 38f 19f
6:54 23 28 mph 1019.3mb 38f 19f
6:48 18 31 mph 1019.2mb 38f 19f
6:42 17 28 mph 1019.1mb 38f 20f
6:36 17 25 mph 1018.9mb 38f 20f
6:30 22 31 mph 1018.7mb 38f 20f
6:24 20 34 mph 1018.4mb 38f 20f
6:18 20 40 mph 1018.3mb 38f 20f
6:12 15 32 mph 1018.4mb 38f 20f
6:06 18 30 mph 1018.2mb 38f 20f
6:00 17 31 mph 1018.2mb 38f 21f
5:54 18 29 mph 1017.9mb 38f 21f
5:48 20 28 mph 1017.8mb 38f 21f
5:42 14 28 mph 1017.7mb 38f 22f
5:36 18 28 mph 1017.5mb 38f 22f
5:30 17 31 mph 1017.3mb 38f 22f
5:24 17 30 mph 1017.1mb 38f 22f
5:18 16 28 mph 1017.1mb 39f 22f
5:12 22 31 mph 1016.9mb 39f 22f
5:06 23 33 mph 1016.7mb 39f 22f
5:00 14 25 mph 1016.6mb 39f 23f
4:54 16 31 mph 1016.6mb 39f 23f
4:48 16 26 mph 1016.4mb 39f 23f
4:42 20 30 mph 1016.2mb 39f 23f
4:36 24 33 mph 1016mb 39f 23f
4:30 24 37 mph 1016mb 39f 22f
4:24 21 29 mph 1015.8mb 39f 23f
4:18 16 29 mph 1015.8mb 39f 24f
4:12 21 32 mph 1015.7mb 39f 23f
4:06 21 33 mph 1015.6mb 39f 24f
4:00 22 33 mph 1015.6mb 39f 23f
3:54 18 30 mph 1015.5mb 39f 24f
3:48 18 30 mph 1015.3mb 39f 24f
3:42 17 22 mph 1015.2mb 39f 24f
3:36 18 34 mph 1015.1mb 39f 24f
3:30 18 31 mph 1015mb 39f 24f
3:24 16 24 mph 1014.9mb 39f 24f
3:18 18 28 mph 1014.9mb 39f 24f
3:12 22 30 mph 1014.8mb 39f 24f
3:06 21 34 mph 1014.6mb 39f 24f
3:00 21 32 mph 1014.6mb 39f 24f
2:54 22 32 mph 1014.4mb 39f 24f
2:48 14 24 mph 1014.2mb 39f 25f
2:42 16 32 mph 1014.1mb 39f 24f
2:36 18 33 mph 1014.1mb 39f 24f
2:30 18 32 mph 1014.2mb 38f 24f
2:24 21 34 mph 1014mb 38f 24f
2:18 22 37 mph 1013.9mb 38f 24f
2:12 18 31 mph 1013.8mb 38f 24f
2:06 16 34 mph 1013.8mb 38f 25f
2:00 21 26 mph 1013.6mb 38f 25f
1:54 22 28 mph 1013.5mb 38f 24f
1:48 22 34 mph 1013.6mb 38f 25f
1:42 21 31 mph 1013.6mb 38f 25f
1:36 16 26 mph 1013.4mb 38f 26f
1:30 21 34 mph 1013.3mb 38f 26f
1:24 20 33 mph 1013.3mb 38f 26f
1:18 17 30 mph 1013.4mb 38f 26f
1:12 18 31 mph 1013.3mb 38f 26f
1:06 20 29 mph 1013.1mb 38f 25f
1:00 21 36 mph 1013.1mb 38f 26f
12:54 16 31 mph 1013mb 38f 26f
12:48 17 36 mph 1012.8mb 38f 26f
12:42 21 30 mph 1012.6mb 38f 26f
12:36 23 32 mph 1012.5mb 38f 26f
12:30 28 36 mph 1012.4mb 38f 26f
12:24 21 33 mph 1012.4mb 38f 26f
12:18 18 34 mph 1012.3mb 38f 26f
12:12 22 30 mph 1012.2mb 38f 27f
12:06 18 33 mph 1012.1mb 38f 27f
12:00 21 31 mph 1011.9mb 38f 27f
11:54 21 34 mph 1012mb 38f 27f
11:48 18 26 mph 1011.8mb 38f 28f
11:42 23 32 mph 1011.6mb 38f 27f
11:36 17 31 mph 1011.6mb 38f 28f
11:30 21 31 mph 1011.5mb 38f 28f
11:24 21 31 mph 1011.2mb 38f 28f
11:18 18 31 mph 1011mb 38f 28f
11:12 23 31 mph 1011mb 38f 28f
11:06 20 34 mph 1011mb 38f 28f
11:00 17 28 mph 1010.9mb 38f 28f
10:54 24 30 mph 1010.8mb 38f 28f
10:48 20 25 mph 1010.6mb 38f 29f
10:42 20 26 mph 1010.6mb 38f 29f
10:36 24 38 mph 1010.5mb 38f 29f
10:30 25 33 mph 1010.3mb 38f 29f
10:24 20 31 mph 1010.3mb 38f 29f
10:18 18 28 mph 1010.1mb 38f 30f
10:12 23 30 mph 1009.8mb 38f 30f
10:06 17 30 mph 1009.5mb 38f 30f
10:00 22 30 mph 1009.3mb 38f 30f
9:54 22 32 mph 1009mb 38f 30f
9:48 21 31 mph 1008.8mb 38f 30f
9:42 16 31 mph 1008.8mb 38f 31f
9:36 18 33 mph 1008.7mb 38f 31f
9:30 20 33 mph 1008.5mb 38f 31f
9:24 21 29 mph 1008.5mb 38f 31f
9:18 17 32 mph 1008.5mb 38f 31f
9:12 20 28 mph 1008.3mb 38f 31f
9:06 18 31 mph 1008.4mb 38f 30f
9:00 18 30 mph 1008.3mb 38f 31f
8:54 21 29 mph 1008.2mb 38f 31f
8:48 18 29 mph 1008.1mb 38f 31f
8:42 20 31 mph 1007.9mb 38f 32f
8:36 18 30 mph 1007.9mb 38f 32f
8:30 14 24 mph 1007.8mb 38f 33f
8:24 16 24 mph 1007.6mb 38f 33f
8:18 17 30 mph 1007.3mb 38f 34f
8:12 15 29 mph 1007.2mb 38f 34f
8:06 15 24 mph 1007mb 38f 35f
8:00 14 22 mph 1006.8mb 38f 35f
7:54 16 21 mph 1006.6mb 38f 35f
7:48 16 24 mph 1006.6mb 38f 35f
7:42 15 25 mph 1006.4mb 38f 36f
7:36 17 29 mph 1006.2mb 38f 35f
7:30 17 26 mph 1006mb 38f 36f
7:24 17 26 mph 1005.9mb 38f 36f
7:18 18 29 mph 1006mb 38f 36f
7:12 10 16 mph 1006mb 38f 36f
7:06 13 20 mph 1006mb 38f 36f
7:00 13 22 mph 1005.9mb 38f 36f
6:54 14 23 mph 1005.7mb 38f 36f
6:48 9 15 mph 1005.6mb 38f 35f
6:42 10 15 mph 1005.5mb 38f 35f
6:36 11 18 mph 1005.3mb 38f 35f
6:30 9 14 mph 1005.3mb 38f 34f
6:24 8 14 mph 1005.4mb 38f 34f
6:18 9 14 mph 1005.4mb 38f 35f
6:12 7 10 mph 1005.3mb 38f 35f
6:06 7 11 mph 1005.3mb 38f 35f
6:00 7 11 mph 1005.3mb 38f 35f
5:54 8 13 mph 1005.3mb 38f 35f
5:48 7 11 mph 1005.3mb 38f 35f
5:42 8 13 mph 1005.3mb 38f 35f
5:36 9 13 mph 1005.4mb 38f 35f
5:30 8 14 mph 1005.4mb 38f 35f
5:24 7 11 mph 1005.4mb 38f 35f
5:18 6 10 mph 1005.4mb 38f 35f
5:12 6 8 mph 1005.4mb 38f 35f
5:06 6 8 mph 1005.4mb 38f 35f
5:00 6 7 mph 1005.4mb 38f 35f
4:54 6 9 mph 1005.4mb 38f 34f
4:48 6 9 mph 1005.3mb 38f 35f
4:42 6 8 mph 1005.3mb 38f 35f
4:36 6 9 mph 1005.3mb 38f 35f
4:30 6 8 mph 1005.4mb 38f 35f
4:24 6 9 mph 1005.4mb 38f 35f
4:18 6 9 mph 1005.5mb 38f 35f
4:12 5 8 mph 1005.7mb 39f 35f
4:06 5 7 mph 1005.7mb 39f 35f
4:00 6 9 mph 1005.7mb 39f 35f
3:54 5 8 mph 1005.8mb 39f 35f
3:48 6 8 mph 1005.8mb 39f 35f
3:42 6 8 mph 1005.9mb 39f 35f
3:36 6 7 mph 1006mb 39f 35f
3:30 6 7 mph 1006.1mb 39f 35f
3:24 5 7 mph 1006.1mb 39f 35f
3:18 5 7 mph 1006.2mb 40f 35f
3:12 5 6 mph 1006.4mb 40f 35f
3:06 5 6 mph 1006.4mb 40f 35f
3:00 2 5 mph 1006.4mb 40f 35f
2:54 3 5 mph 1006.6mb 40f 35f
2:48 2 5 mph 1006.6mb 40f -
2:42 3 6 mph 1006.8mb 40f -
2:36 5 7 mph 1007mb 40f -
2:30 6 9 mph 1007.2mb 40f 37f
2:24 6 9 mph 1007.2mb 40f 37f
2:18 7 8 mph 1007.2mb 40f 36f
2:12 5 6 mph 1007.1mb 40f 36f
2:06 5 6 mph 1007.2mb 40f 36f
2:00 5 6 mph 1007.2mb 40f 37f
1:54 5 8 mph 1007.3mb 40f 37f
1:48 7 9 mph - - -
1:42 8 9 mph - - -
1:36 8 9 mph - - -
1:30 7 8 mph 1007.4mb 40f 37f
1:24 6 7 mph 1007.5mb 40f 37f
1:18 6 7 mph 1007.5mb 40f 38f
1:12 5 9 mph 1007.6mb 40f 38f
1:06 6 8 mph 1007.6mb 40f 38f
1:00 6 7 mph 1007.6mb 40f 38f
12:54 6 7 mph 1007.7mb 40f 37f
12:48 6 7 mph 1007.7mb 40f 38f
12:42 5 6 mph 1007.6mb 40f 38f
12:36 5 6 mph 1007.6mb 40f 39f
12:30 5 7 mph 1007.7mb 40f 39f
12:24 6 7 mph 1007.7mb 40f 39f
12:18 5 8 mph 1007.8mb 40f 39f
12:12 5 8 mph 1007.9mb 39f 38f
12:06 6 8 mph 1008mb 39f 38f
12:00 2 5 mph 1008.1mb 39f 37f
mar. 03/21 11:54 1 3 mph 1008.2mb 39f 37f
11:48 2 5 mph 1008.3mb 39f 39f
11:42 2 5 mph 1008.3mb 39f 39f
11:36 3 6 mph 1008.4mb 39f 39f
11:30 5 6 mph 1008.4mb 39f 40f
11:24 3 6 mph 1008.3mb 39f 40f
11:18 5 6 mph 1008.3mb 39f 41f
11:12 5 6 mph 1008.4mb 39f 41f
11:06 3 6 mph 1008.4mb 39f 41f
11:00 2 6 mph 1008.4mb 39f 41f
10:54 5 8 mph 1008.3mb 39f 41f
10:48 5 7 mph 1008.2mb 39f 41f
10:42 5 6 mph 1008.2mb 39f 41f
10:36 5 8 mph 1008.1mb 39f 41f
10:30 5 9 mph 1008.1mb 39f 41f
10:24 7 10 mph 1008.2mb 39f 41f
10:18 7 9 mph 1008.1mb 39f 41f
10:12 7 10 mph 1008.1mb 39f 41f
10:06 7 9 mph 1008.2mb 39f 41f
10:00 6 7 mph 1008.2mb 39f 40f
9:54 6 7 mph 1008.2mb 40f 40f
9:48 2 5 mph 1008.2mb 39f 39f
9:42 5 6 mph 1008.1mb 39f 38f
9:36 3 6 mph 1008.1mb 39f 38f
9:30 6 7 mph 1008.2mb 39f 39f
9:24 7 8 mph 1008.2mb 39f 39f
9:18 8
mph
1008.2mb 39f 39f
9:12 7
mph
1008.2mb 39f 39f
9:06 6
mph
1008.2mb 39f 38f
9:00 5
mph
1008.2mb 39f 38f
8:54 5 6 mph 1008.1mb 39f 39f
8:48 5 6 mph 1008.1mb 39f 38f
8:42 6
mph
1008.1mb 39f 38f
8:36 2 3 mph 1008.1mb 39f 39f
8:30 2 5 mph 1008.2mb 39f 40f
8:24 5 6 mph 1008.1mb 39f 40f
8:18 5 6 mph 1008.1mb 39f 40f
8:12  -  1 mph 1008.1mb 39f 39f
8:06  -  5 mph 1008.1mb 39f 39f
8:00 3
mph
1008mb 39f 39f
7:54 3 5 mph 1008mb 39f 40f
7:48 5 7 mph 1008mb 39f 39f
7:42 6 7 mph 1007.9mb 39f 39f
7:36 6 7 mph 1007.9mb 39f 40f
7:30 6 7 mph 1007.9mb 39f 40f
7:24 6 8 mph 1007.9mb 39f 39f
7:18 8 9 mph 1007.9mb 39f 40f
7:12 8 13 mph 1007.8mb 39f 40f
7:06 10 11 mph 1007.8mb 39f 41f
7:00 6 9 mph 1007.7mb 39f 41f
6:54 8 10 mph 1007.8mb 39f 42f
6:48 9 13 mph 1007.8mb 39f 42f
6:42 11 14 mph 1007.8mb 39f 42f
6:36 11 14 mph 1007.8mb 39f 42f
6:30 11 14 mph 1007.8mb 39f 42f
6:24 11 15 mph 1007.7mb 39f 42f
6:18 13 16 mph 1007.7mb 39f 42f
6:12 14 16 mph 1007.7mb 39f 42f
6:06 13 14 mph 1007.7mb 39f 42f
6:00 11 14 mph 1007.6mb 39f 42f
5:54 11 14 mph 1007.7mb 39f 41f
5:48 13 15 mph 1007.6mb 39f 42f
5:42 11 15 mph 1007.6mb 39f 41f
5:36 14 15 mph 1007.6mb 39f 42f
5:30 13 16 mph 1007.6mb 39f 42f
5:24 14 17 mph 1007.7mb 39f 41f
5:18 14 18 mph 1007.7mb 39f 42f
5:12 15 18 mph 1007.7mb 39f 42f
5:06 15 20 mph 1007.8mb 39f 42f
5:00 15 17 mph 1007.8mb 39f 43f
4:54 16 18 mph 1007.8mb 39f 43f
4:48 16 18 mph 1007.9mb 39f 43f
4:42 13 17 mph 1007.9mb 39f 43f
4:36 15 18 mph 1008mb 39f 43f
4:30 16 20 mph 1008mb 39f 42f
4:24 14 18 mph 1008.1mb 39f 42f
4:18 16 18 mph 1008.2mb 39f 42f
4:12 16 20 mph 1008.2mb 39f 42f
4:06 17 22 mph 1008.1mb 39f 43f
4:00 16 21 mph 1008.1mb 39f 43f
3:54 16 20 mph 1008.2mb 39f 43f
3:48 16 20 mph 1008.2mb 39f 43f
3:42 15 18 mph 1008.2mb 39f 43f
3:36 14 16 mph 1008.3mb 39f 43f
3:30 14 17 mph 1008.3mb 39f 42f
3:24 15 17 mph 1008.4mb 39f 42f
3:18 16 18 mph 1008.4mb 40f 42f
3:12 14 17 mph 1008.6mb 40f 42f
3:06 14 17 mph 1008.7mb 40f 42f
3:00 15 18 mph 1008.7mb 40f 42f
2:54 14 16 mph 1008.7mb 40f 42f
2:48 14 16 mph 1008.8mb 40f 42f
2:42 13 17 mph 1008.8mb 40f 42f
2:36 15 17 mph 1008.7mb 40f 42f
2:30 14 16 mph 1008.8mb 40f 43f
2:24 14 15 mph 1008.9mb 40f 43f
2:18 11 16 mph 1009mb 40f 43f
2:12 11 14 mph 1009mb 39f 44f
2:06 11 14 mph 1009.2mb 39f 43f
2:00 13 15 mph 1009.4mb 39f 43f
1:54 13 15 mph 1009.4mb 39f 43f
1:48 14 15 mph 1009.6mb 39f 43f
1:42 11 14 mph 1009.6mb 39f 43f
1:36 13 15 mph 1009.7mb 39f 43f
1:30 11 14 mph 1009.8mb 39f 43f
1:24 10 14 mph 1009.9mb 39f 43f
1:18 11 14 mph 1010mb 39f 44f
1:12 11 14 mph 1010.1mb 39f 44f
1:06 11 14 mph 1010.1mb 39f 44f
1:00 11 13 mph 1010.1mb 39f 43f
12:54 11 13 mph 1010.2mb 39f 44f
12:48 10 11 mph 1010.3mb 39f 44f
12:42 9 11 mph 1010.3mb 39f 44f
12:36 9 11 mph 1010.4mb 39f 43f
12:30 9 10 mph 1010.5mb 39f 43f
12:24 9 10 mph 1010.5mb 39f 43f
12:18 7 8 mph 1010.5mb 39f 44f
12:12 7 9 mph 1010.6mb 39f 44f
12:06 8 9 mph 1010.7mb 39f 44f
12:00 8
mph
1010.7mb 39f 43f
11:54 7 9 mph 1010.8mb 39f 42f
11:48 8 9 mph 1010.9mb 38f 42f
11:42 8 10 mph 1010.9mb 38f 42f
11:36 8 9 mph 1010.9mb 38f 42f
11:30 7 8 mph 1011mb 38f 42f
11:24 6 7 mph 1011.1mb 38f 43f
11:18 6
mph
1011.2mb 38f 43f
11:12 6 7 mph 1011.2mb 38f 43f
11:06 3 5 mph 1011.2mb 38f 44f
11:00 5 6 mph 1011.2mb 38f 45f
10:54 3
mph
1011.3mb 38f 46f
10:48 2
mph
1011.3mb 38f 46f
10:42 3 5 mph 1011.3mb 38f 44f
10:36 3
mph
1011.4mb 38f 44f
10:30 3
mph
1011.4mb 38f 43f
10:24 3
mph
1011.5mb 38f 42f
10:18 2
mph
1011.5mb 38f 42f
10:12 2
mph
1011.5mb 38f 41f
10:06 2 3 mph 1011.5mb 38f 41f
10:00 2 3 mph 1011.5mb 38f 41f
9:54 2
mph
1011.5mb 38f 41f
9:48 2 3 mph 1011.5mb 38f 40f
9:42 2 3 mph 1011.5mb 38f 39f
9:36 2 3 mph 1011.6mb 38f 39f
9:30 3
mph
1011.6mb 38f 39f
9:24 2 3 mph 1011.6mb 38f 40f
9:18 2 5 mph 1011.7mb 38f 40f
9:12 5
mph
1011.7mb 38f 40f
9:06 2 5 mph 1011.6mb 38f 40f
9:00 1 5 mph 1011.6mb 38f 40f
8:54 3 6 mph 1011.6mb 38f 39f
8:48 3 6 mph 1011.5mb 38f 38f
8:42 3 5 mph 1011.5mb 38f 38f
8:36 2 3 mph 1011.5mb 38f 38f
8:30 1 2 mph 1011.4mb 38f 37f
8:24 2 3 mph 1011.4mb 38f 37f
8:18 2 3 mph 1011.3mb 38f 37f
8:12 2 3 mph 1011.3mb 38f 37f
8:06 2 3 mph 1011.1mb 38f 37f
8:00  -  mph 1011mb 38f 36f
7:54  -  1 mph 1010.9mb 38f 36f
7:48 1 2 mph 1010.9mb 38f 35f
7:42 2
mph
1010.9mb 38f 35f
7:36  -  1 mph 1010.8mb 38f 34f
7:30  -  1 mph 1010.7mb 38f 33f
7:24 1 2 mph 1010.7mb 38f 32f
7:18 1 3 mph 1010.6mb 38f 32f
7:12 2
mph
1010.7mb 38f 33f
7:06 1
mph
1010.6mb 38f 35f
7:00  -  1 mph 1010.6mb 38f 34f
6:54 1
mph
1010.7mb 38f 33f
6:48  -  1 mph 1010.7mb 38f 33f
6:42 1 2 mph 1010.9mb 38f 33f
6:36 2
mph
1010.9mb 38f 32f
6:30 1 2 mph 1010.8mb 38f 32f
6:24  -  1 mph 1010.8mb 38f 31f
6:18  -  2 mph 1010.9mb 38f 31f
6:12 2 3 mph 1011mb 38f 32f
6:06 2 3 mph 1010.8mb 38f 33f
6:00 1 2 mph 1010.7mb 38f 33f
5:54 2 5 mph 1010.8mb 38f 34f
5:48 3 5 mph 1010.8mb 38f 34f
5:42 1 2 mph 1010.7mb 38f 35f
5:36  -  2 mph 1010.6mb 38f 34f
5:30  -  3 mph 1010.8mb 38f 34f
5:24 2 3 mph 1010.9mb 38f 35f
5:18 2 3 mph 1010.9mb 38f 34f
5:12 1 2 mph 1011mb 38f 35f
5:06  -  3 mph 1010.9mb 38f 36f
5:00 2 5 mph 1010.9mb 38f 36f
4:54 3 5 mph 1011mb 38f 37f
4:48 3 6 mph 1010.9mb 38f 37f
4:42 5 7 mph 1010.9mb 38f 37f
4:36 6 8 mph 1010.9mb 38f 37f
4:30 3 8 mph 1010.8mb 38f 37f
4:24 5 6 mph 1010.9mb 38f 37f
4:18 3 5 mph 1010.8mb 38f 37f
4:12 3 6 mph 1010.8mb 38f 38f
4:06 5 8 mph 1010.8mb 38f 38f
4:00 5 7 mph 1010.9mb 38f 38f
3:54 3 8 mph 1010.9mb 38f 38f
3:48 5 7 mph 1010.9mb 38f 38f
3:42 5 7 mph 1010.9mb 38f 38f
3:36 5 6 mph 1010.9mb 38f 37f
3:30 5 6 mph 1011mb 38f 38f
3:24 5 6 mph 1011.1mb 38f 38f
3:18 6 7 mph 1011.2mb 38f 38f
3:12 6 7 mph 1011.2mb 38f 38f
3:06 7 8 mph 1011.2mb 38f 38f
3:00 7 8 mph 1011.3mb 38f 38f
2:54 6 8 mph 1011.3mb 38f 38f
2:48 5 7 mph 1011.4mb 39f 38f
2:42 6 8 mph 1011.4mb 39f 38f
2:36 6 7 mph 1011.5mb 39f 37f
2:30 7 8 mph 1011.5mb 39f 37f
2:24 7
mph
1011.5mb 40f 36f
2:18 5 6 mph 1011.7mb 40f 35f
2:12 5 6 mph 1011.7mb 40f 35f
2:06 5 6 mph 1011.8mb 40f 35f
2:00 3 5 mph 1011.8mb 40f 35f
1:54 5 6 mph 1011.9mb 40f 35f
1:48 6 7 mph 1011.9mb 40f 36f
1:42 7 8 mph 1011.9mb 40f 36f
1:36 8 9 mph 1012mb 40f 36f
1:30 8 9 mph 1012mb 40f 36f
1:24 8 9 mph 1012.1mb 40f 36f
1:18 7 8 mph 1012.1mb 40f 36f
1:12 6 7 mph 1012.1mb 40f 35f
1:06 6 8 mph 1012.1mb 40f 36f
1:00 7 8 mph 1012.2mb 40f 36f
12:54 8 9 mph 1012.2mb 40f 36f
12:48 7
mph
1012.2mb 40f 36f
12:42 7 8 mph 1012.4mb 40f 36f
12:36 7 8 mph 1012.4mb 40f 37f
12:30 5 7 mph 1012.5mb 40f 36f
12:24 6 8 mph 1012.5mb 40f 35f
12:18 7 8 mph 1012.6mb 40f 37f
12:12 8 9 mph 1012.7mb 40f 37f
12:06 8
mph
1012.8mb 39f 37f
12:00 8
mph
1012.8mb 39f 37f
lun. 03/20 11:54 7 9 mph 1012.7mb 39f 38f
11:48 8 9 mph 1012.7mb 39f 37f
11:42 6 8 mph 1012.7mb 39f 37f
11:36 7 9 mph 1012.8mb 39f 36f
11:30 7
mph
1012.8mb 39f 37f
11:24 6 7 mph 1012.8mb 39f 36f
11:18 6
mph
1012.8mb 39f 38f
11:12 6 7 mph 1012.8mb 39f 38f
11:06 3 5 mph 1012.8mb 39f 37f
11:00 3 5 mph 1012.7mb 39f 36f
10:54 3
mph
1012.7mb 39f 35f
10:48 2 5 mph 1012.7mb 39f 34f
10:42 5
mph
1012.7mb 39f 34f
10:36 5 6 mph 1012.7mb 39f 34f
10:30 5 6 mph 1012.6mb 39f 35f
10:24 1 2 mph 1012.8mb 39f 34f
10:18 2 3 mph 1012.7mb 39f 34f
10:12 2 3 mph 1012.8mb 39f 33f
10:06 5 6 mph 1012.8mb 39f 35f
10:00 5 6 mph 1012.9mb 39f 37f
9:54 5 6 mph 1013mb 39f 35f
9:48 3
mph
1013.1mb 39f 35f
9:42 2 5 mph 1013.1mb 39f 38f
9:36 1 5 mph 1013.1mb 39f 40f
9:30 6
mph
1013.2mb 39f 42f
9:24 5 6 mph 1013.2mb 40f 40f
9:18 3 6 mph 1013.2mb 40f 37f
9:12 2 6 mph 1013.1mb 40f 37f
9:06 5 9 mph 1013.1mb 40f 37f
9:00 3 5 mph 1013mb 39f 35f
8:54 3 5 mph 1013mb 39f 36f
8:48 3
mph
1013mb 39f 35f
8:42  -  1 mph 1013mb 39f 37f
8:36 1 2 mph 1013mb 39f 37f
8:30 2 3 mph 1013.1mb 39f 37f
8:24 3
mph
1013.1mb 39f 37f
8:18 3 5 mph 1013.1mb 39f 37f
8:12 3
mph
1013.1mb 39f 37f
8:06 2 3 mph 1013.1mb 39f 38f
8:00 3
mph
1013.1mb 39f 40f
7:54 3
mph
1013.2mb 39f 40f
7:48 3
mph
1013.2mb 39f 40f
7:42 2
mph
1013.2mb 39f 39f
7:36 1 2 mph 1013.3mb 39f 38f
7:30 2 5 mph 1013.2mb 39f 41f
7:24 5 6 mph 1013.2mb 39f 45f
7:18 3 5 mph 1013.3mb 39f 44f
7:12 3 5 mph 1013.3mb 39f 46f
7:06 3 5 mph 1013.2mb 39f 47f
7:00 3
mph
1013.2mb 39f 48f
6:54 3 5 mph 1013.3mb 39f 49f
6:48 3 5 mph 1013.2mb 39f 49f
6:42 5 6 mph 1013.2mb 39f 49f
6:36 5 7 mph 1013.2mb 39f 49f
6:30 6 8 mph 1013.1mb 39f 50f
6:24 7 10 mph 1013.2mb 39f 50f
6:18 7 11 mph 1013.2mb 39f 50f
6:12 9 13 mph 1013.1mb 39f 50f
6:06 9 14 mph 1013.1mb 39f 51f
6:00 9 13 mph 1013.1mb 39f 51f
5:54 6 9 mph 1013.1mb 39f 50f
5:48 7 10 mph 1013.1mb 39f 51f
5:42 7 9 mph 1013.2mb 39f 51f
5:36 8 10 mph 1013.2mb 39f 51f
5:30 9 11 mph 1013.3mb 39f 51f
5:24 9 11 mph 1013.4mb 39f 51f
5:18 7 8 mph 1013.4mb 39f 50f
5:12 8 11 mph 1013.4mb 39f 51f
5:06 7 10 mph 1013.4mb 39f 50f
5:00 10 11 mph 1013.3mb 39f 51f
4:54 10 16 mph 1013.3mb 39f 50f
4:48 9 11 mph 1013.4mb 39f 51f
4:42 9 13 mph 1013.4mb 39f 51f
4:36 11 16 mph 1013.4mb 39f 51f
4:30 9 11 mph 1013.4mb 39f 51f
4:24 8 15 mph 1013.5mb 39f 51f
4:18 11 15 mph 1013.5mb 39f 51f
4:12 9 16 mph 1013.6mb 39f 50f
4:06 13 20 mph 1013.5mb 39f 50f
4:00 9 15 mph 1013.6mb 39f 50f